Sea Sub — WDE5399 — position and weather

sailwx.info

Track history (hours):
 
Tides and Currents Weather Stations Pressure Air Temp Water Temp Dewpoint Dewpoint Depression Visibility Wind Speed Wind Dir Waves Ship Positions

Sea Sub

Owner: Sea Sub Systems, Inc., Indian Rocks Beach, FL. More information available from US FCC via Universal Licensing System and Coast Guard Vessel Documentation Center.

Last reported at 2017-Oct-23 15:19 UTC. Time now 2017-Nov-20 17:41 UTC.
Position N 27°46' W 082°32'.
Warning: this ship's position is 28 days out of date.

Length 30 m.

MMSI: 367366150.

Date/timePositionNaut miles runAvg speedWind from/ knotsBaromVisibWave heightAir tempDewpointWater temp
2017-Oct-23 15:19N 27°46' W 082°32'516.7
2017-Oct-23 15:01N 27°49' W 082°27'612.6
2017-Oct-23 14:31N 27°55' W 082°26'1 2.1
2017-Oct-23 14:00N 27°55' W 082°27'1 2.4
2017-Oct-23 13:30N 27°56' W 082°26'1 2.4
2017-Oct-23 13:01N 27°55' W 082°27'0 0.0
2017-Oct-23 12:31N 27°55' W 082°27'1 2.0
2017-Oct-23 12:00N 27°55' W 082°26'0 0.6
2017-Oct-23 11:30N 27°56' W 082°26'4 7.3
2017-Oct-23 11:00N 27°52' W 082°27'  
2017-Oct-20 18:47N 27°46' W 082°32'516.7
2017-Oct-20 18:30N 27°49' W 082°28'714.7
2017-Oct-20 18:00N 27°56' W 082°26'1 2.9
2017-Oct-20 17:30N 27°57' W 082°27'0 0.0
2017-Oct-20 17:00N 27°57' W 082°27'1 1.0
2017-Oct-20 16:30N 27°56' W 082°27'1 2.4
2017-Oct-20 16:00N 27°56' W 082°26'0 0.0
2017-Oct-20 15:30N 27°56' W 082°26'0 0.0
2017-Oct-20 15:00N 27°56' W 082°26'0 0.0
2017-Oct-20 14:00N 27°56' W 082°26'1 2.3
2017-Oct-20 13:30N 27°55' W 082°27'2 3.3
2017-Oct-20 13:00N 27°57' W 082°27'0 0.0
2017-Oct-20 12:30N 27°57' W 082°27'2 3.3
2017-Oct-20 12:00N 27°55' W 082°26'0 0.5
2017-Oct-20 11:30N 27°56' W 082°26'4 7.9
2017-Oct-20 11:00N 27°52' W 082°27'  
2017-Oct-13 19:43N 27°46' W 082°32'314.7
2017-Oct-13 19:30N 27°47' W 082°30'815.2
2017-Oct-13 19:01N 27°54' W 082°26'2 3.6
2017-Oct-13 18:31N 27°56' W 082°27'0 0.0
2017-Oct-13 18:01N 27°56' W 082°27'1 1.6
2017-Oct-13 17:30N 27°55' W 082°27'1 2.4
2017-Oct-13 17:00N 27°56' W 082°26'1 1.6
2017-Oct-13 16:30N 27°55' W 082°26'1 2.9
2017-Oct-13 16:00N 27°56' W 082°27'0 0.0
2017-Oct-13 15:30N 27°56' W 082°27'  
Track history (hours):
 
Tides and Currents Weather Stations Pressure Air Temp Water Temp Dewpoint Dewpoint Depression Visibility Wind Speed Wind Dir Waves Ship Positions

Sea Sub

Owner: Sea Sub Systems, Inc., Indian Rocks Beach, FL. More information available from US FCC via Universal Licensing System and Coast Guard Vessel Documentation Center.

Last reported at 2017-Oct-23 15:19 UTC. Time now 2017-Nov-20 17:41 UTC.
Position N 27°46' W 082°32'.
Warning: this ship's position is 28 days out of date.

Length 30 m.

MMSI: 367366150.

Date/timePositionNaut miles runAvg speedWind from/ knotsBaromVisibWave heightAir tempDewpointWater temp
2017-Oct-23 15:19N 27°46' W 082°32'516.7
2017-Oct-23 15:01N 27°49' W 082°27'612.6
2017-Oct-23 14:31N 27°55' W 082°26'1 2.1
2017-Oct-23 14:00N 27°55' W 082°27'1 2.4
2017-Oct-23 13:30N 27°56' W 082°26'1 2.4
2017-Oct-23 13:01N 27°55' W 082°27'0 0.0
2017-Oct-23 12:31N 27°55' W 082°27'1 2.0
2017-Oct-23 12:00N 27°55' W 082°26'0 0.6
2017-Oct-23 11:30N 27°56' W 082°26'4 7.3
2017-Oct-23 11:00N 27°52' W 082°27'  
2017-Oct-20 18:47N 27°46' W 082°32'516.7
2017-Oct-20 18:30N 27°49' W 082°28'714.7
2017-Oct-20 18:00N 27°56' W 082°26'1 2.9
2017-Oct-20 17:30N 27°57' W 082°27'0 0.0
2017-Oct-20 17:00N 27°57' W 082°27'1 1.0
2017-Oct-20 16:30N 27°56' W 082°27'1 2.4
2017-Oct-20 16:00N 27°56' W 082°26'0 0.0
2017-Oct-20 15:30N 27°56' W 082°26'0 0.0
2017-Oct-20 15:00N 27°56' W 082°26'0 0.0
2017-Oct-20 14:00N 27°56' W 082°26'1 2.3
2017-Oct-20 13:30N 27°55' W 082°27'2 3.3
2017-Oct-20 13:00N 27°57' W 082°27'0 0.0
2017-Oct-20 12:30N 27°57' W 082°27'2 3.3
2017-Oct-20 12:00N 27°55' W 082°26'0 0.5
2017-Oct-20 11:30N 27°56' W 082°26'4 7.9
2017-Oct-20 11:00N 27°52' W 082°27'  
2017-Oct-13 19:43N 27°46' W 082°32'314.7
2017-Oct-13 19:30N 27°47' W 082°30'815.2
2017-Oct-13 19:01N 27°54' W 082°26'2 3.6
2017-Oct-13 18:31N 27°56' W 082°27'0 0.0
2017-Oct-13 18:01N 27°56' W 082°27'1 1.6
2017-Oct-13 17:30N 27°55' W 082°27'1 2.4
2017-Oct-13 17:00N 27°56' W 082°26'1 1.6
2017-Oct-13 16:30N 27°55' W 082°26'1 2.9
2017-Oct-13 16:00N 27°56' W 082°27'0 0.0
2017-Oct-13 15:30N 27°56' W 082°27'  

Dump ship's entire track history